Linda Moran — WDE4187 — position and weather

sailwx.info

Track history (hours):
 
Tides and Currents Weather Stations Pressure Air Temp Water Temp Dewpoint Dewpoint Depression Visibility Wind Speed Wind Dir Waves Ship Positions

Linda Moran

Owner: MORAN TOWING CORP., NEW CANAAN, CT. More information available from US FCC via Universal Licensing System and Coast Guard Vessel Documentation Center.

Last reported at 2018-Jan-18 14:56 UTC. Time now 2018-Jan-18 15:38 UTC.
Position N 40°36' W 074°12'.

Length 156 m; draft 7.6 m.

Type: . MMSI: 367349860.

Date/timePositionNaut miles runAvg speedWind from/ knotsBaromVisibWave heightAir tempDewpointWater temp
2018-Jan-18 14:56N 40°36' W 074°12'0 0.0
2018-Jan-18 14:26N 40°36' W 074°12'0 0.0
2018-Jan-18 13:59N 40°36' W 074°12'0 0.0
2018-Jan-18 13:26N 40°36' W 074°12'3 1.5
2018-Jan-18 11:31N 40°39' W 074°11'0 9.8
2018-Jan-18 11:30N 40°39' W 074°10'510.2
2018-Jan-18 11:00N 40°39' W 074°04'1 2.8
2018-Jan-18 10:30N 40°40' W 074°02'0 0.0
2018-Jan-18 10:00N 40°40' W 074°02'0 0.0
2018-Jan-18 09:30N 40°40' W 074°02'0 0.0
2018-Jan-18 09:00N 40°40' W 074°02'0 0.0
2018-Jan-18 08:30N 40°40' W 074°02'0 0.0
2018-Jan-18 08:00N 40°40' W 074°02'0 0.0
2018-Jan-18 07:30N 40°40' W 074°02'0 0.0
2018-Jan-18 07:00N 40°40' W 074°02'0 0.0
2018-Jan-18 06:30N 40°40' W 074°02'0 0.0
2018-Jan-18 06:00N 40°40' W 074°02'0 0.0
2018-Jan-18 05:30N 40°40' W 074°02'0 0.0
2018-Jan-18 05:00N 40°40' W 074°02'0 0.0
2018-Jan-18 04:30N 40°40' W 074°02'0 0.1
2018-Jan-18 04:00N 40°40' W 074°02'0 0.2
2018-Jan-18 03:30N 40°40' W 074°02'0 0.2
2018-Jan-18 03:00N 40°40' W 074°02'0 0.0
2018-Jan-18 02:30N 40°40' W 074°02'0 0.0
2018-Jan-18 02:00N 40°40' W 074°02'0 0.0
2018-Jan-18 01:30N 40°40' W 074°02'0 0.1
2018-Jan-18 01:00N 40°40' W 074°02'0 0.1
2018-Jan-18 00:00N 40°40' W 074°02'0 0.3
2018-Jan-17 23:57N 40°40' W 074°02'  
2018-Jan-12 14:59N 39°35' W 075°36'0 0.0
2018-Jan-12 14:29N 39°35' W 075°36'0 0.0
2018-Jan-12 13:59N 39°35' W 075°36'0 0.0
2018-Jan-12 13:29N 39°35' W 075°36'0 0.0
2018-Jan-12 12:59N 39°35' W 075°36'0 0.0
2018-Jan-12 12:29N 39°35' W 075°36'0 0.0
2018-Jan-12 11:59N 39°35' W 075°36'0 0.0
2018-Jan-12 11:29N 39°35' W 075°36'0 0.0
2018-Jan-12 10:59N 39°35' W 075°36'0 0.0
2018-Jan-12 10:29N 39°35' W 075°36'0 0.0
2018-Jan-12 09:59N 39°35' W 075°36'0 0.0
2018-Jan-12 09:29N 39°35' W 075°36'0 0.0
2018-Jan-12 08:59N 39°35' W 075°36'0 0.0
2018-Jan-12 08:29N 39°35' W 075°36'0 0.0
2018-Jan-12 07:59N 39°35' W 075°36'0 0.0
2018-Jan-12 07:29N 39°35' W 075°36'0 0.0
2018-Jan-12 06:59N 39°35' W 075°36'0 0.0
2018-Jan-12 06:29N 39°35' W 075°36'0 0.0
2018-Jan-12 05:59N 39°35' W 075°36'0 0.0
2018-Jan-12 05:29N 39°35' W 075°36'0 0.0
2018-Jan-12 04:59N 39°35' W 075°36'0 0.0
2018-Jan-12 04:29N 39°35' W 075°36'0 0.0
2018-Jan-12 03:59N 39°35' W 075°36'0 0.0
2018-Jan-12 03:29N 39°35' W 075°36'0 0.0
2018-Jan-12 02:59N 39°35' W 075°36'0 0.0
2018-Jan-12 02:29N 39°35' W 075°36'0 0.0
2018-Jan-12 01:59N 39°35' W 075°36'0 0.0
2018-Jan-12 01:29N 39°35' W 075°36'0 0.0
2018-Jan-12 00:59N 39°35' W 075°36'0 0.0
2018-Jan-12 00:29N 39°35' W 075°36'0 0.0
2018-Jan-11 23:59N 39°35' W 075°36'0 0.0
2018-Jan-11 23:29N 39°35' W 075°36'0 0.0
2018-Jan-11 22:59N 39°35' W 075°36'0 0.0
2018-Jan-11 22:29N 39°35' W 075°36'0 0.0
2018-Jan-11 21:59N 39°35' W 075°36'0 0.0
2018-Jan-11 21:29N 39°35' W 075°36'0 0.0
2018-Jan-11 20:59N 39°35' W 075°36'0 0.0
2018-Jan-11 20:29N 39°35' W 075°36'0 0.0
2018-Jan-11 19:59N 39°35' W 075°36'0 0.0
2018-Jan-11 19:29N 39°35' W 075°36'0 0.0
2018-Jan-11 18:59N 39°35' W 075°36'0 0.0
2018-Jan-11 18:30N 39°35' W 075°36'0 0.5
2018-Jan-11 18:00N 39°35' W 075°35'4 7.0
2018-Jan-11 17:30N 39°32' W 075°33'4 7.7
2018-Jan-11 17:00N 39°28' W 075°34'4 7.9
2018-Jan-11 16:30N 39°25' W 075°31'4 8.2
2018-Jan-11 16:00N 39°22' W 075°27'4 8.4
2018-Jan-11 15:30N 39°19' W 075°24'4 8.4
2018-Jan-11 15:00N 39°16' W 075°20'4 8.7
2018-Jan-11 14:30N 39°12' W 075°17'4 8.7
2018-Jan-11 14:00N 39°09' W 075°14'4 9.0
2018-Jan-11 13:30N 39°05' W 075°11'5 9.2
2018-Jan-11 12:59N 39°00' W 075°09'4 9.1
2018-Jan-11 12:30N 38°57' W 075°06'16 6.4
2018-Jan-11 09:59N 38°55' W 074°45'5 9.8
2018-Jan-11 09:30N 38°59' W 074°41'510.0
2018-Jan-11 08:58N 39°02' W 074°36'910.4
2018-Jan-11 08:05N 39°09' W 074°28'210.5
2018-Jan-11 07:51N 39°10' W 074°25'410.4
2018-Jan-11 07:29N 39°13' W 074°22'610.3
2018-Jan-11 06:53N 39°17' W 074°16'610.4
2018-Jan-11 06:21N 39°22' W 074°12'410.4
2018-Jan-11 05:55N 39°26' W 074°10'410.3
2018-Jan-11 05:30N 39°30' W 074°07'510.3
2018-Jan-11 04:59N 39°35' W 074°04'510.4
2018-Jan-11 04:30N 39°39' W 074°02'510.3
2018-Jan-11 03:58N 39°45' W 073°59'510.2
2018-Jan-11 03:26N 39°50' W 073°58'510.4
2018-Jan-11 02:57N 39°55' W 073°57'610.3
2018-Jan-11 02:22N 40°01' W 073°56'510.3
2018-Jan-11 01:56N 40°05' W 073°55'1510.4
2018-Jan-11 00:31N 40°20' W 073°54'0 8.8
2018-Jan-11 00:30N 40°20' W 073°54'19 9.0
2018-Jan-10 22:22N 40°38' W 074°03'3 8.9
2018-Jan-10 22:00N 40°41' W 074°01'4 8.0
2018-Jan-10 21:30N 40°44' W 073°58'  
Track history (hours):
 
Tides and Currents Weather Stations Pressure Air Temp Water Temp Dewpoint Dewpoint Depression Visibility Wind Speed Wind Dir Waves Ship Positions

Linda Moran

Owner: MORAN TOWING CORP., NEW CANAAN, CT. More information available from US FCC via Universal Licensing System and Coast Guard Vessel Documentation Center.

Last reported at 2018-Jan-18 14:56 UTC. Time now 2018-Jan-18 15:38 UTC.
Position N 40°36' W 074°12'.

Length 156 m; draft 7.6 m.

Type: . MMSI: 367349860.

Date/timePositionNaut miles runAvg speedWind from/ knotsBaromVisibWave heightAir tempDewpointWater temp
2018-Jan-18 14:56N 40°36' W 074°12'0 0.0
2018-Jan-18 14:26N 40°36' W 074°12'0 0.0
2018-Jan-18 13:59N 40°36' W 074°12'0 0.0
2018-Jan-18 13:26N 40°36' W 074°12'3 1.5
2018-Jan-18 11:31N 40°39' W 074°11'0 9.8
2018-Jan-18 11:30N 40°39' W 074°10'510.2
2018-Jan-18 11:00N 40°39' W 074°04'1 2.8
2018-Jan-18 10:30N 40°40' W 074°02'0 0.0
2018-Jan-18 10:00N 40°40' W 074°02'0 0.0
2018-Jan-18 09:30N 40°40' W 074°02'0 0.0
2018-Jan-18 09:00N 40°40' W 074°02'0 0.0
2018-Jan-18 08:30N 40°40' W 074°02'0 0.0
2018-Jan-18 08:00N 40°40' W 074°02'0 0.0
2018-Jan-18 07:30N 40°40' W 074°02'0 0.0
2018-Jan-18 07:00N 40°40' W 074°02'0 0.0
2018-Jan-18 06:30N 40°40' W 074°02'0 0.0
2018-Jan-18 06:00N 40°40' W 074°02'0 0.0
2018-Jan-18 05:30N 40°40' W 074°02'0 0.0
2018-Jan-18 05:00N 40°40' W 074°02'0 0.0
2018-Jan-18 04:30N 40°40' W 074°02'0 0.1
2018-Jan-18 04:00N 40°40' W 074°02'0 0.2
2018-Jan-18 03:30N 40°40' W 074°02'0 0.2
2018-Jan-18 03:00N 40°40' W 074°02'0 0.0
2018-Jan-18 02:30N 40°40' W 074°02'0 0.0
2018-Jan-18 02:00N 40°40' W 074°02'0 0.0
2018-Jan-18 01:30N 40°40' W 074°02'0 0.1
2018-Jan-18 01:00N 40°40' W 074°02'0 0.1
2018-Jan-18 00:00N 40°40' W 074°02'0 0.3
2018-Jan-17 23:57N 40°40' W 074°02'  
2018-Jan-12 14:59N 39°35' W 075°36'0 0.0
2018-Jan-12 14:29N 39°35' W 075°36'0 0.0
2018-Jan-12 13:59N 39°35' W 075°36'0 0.0
2018-Jan-12 13:29N 39°35' W 075°36'0 0.0
2018-Jan-12 12:59N 39°35' W 075°36'0 0.0
2018-Jan-12 12:29N 39°35' W 075°36'0 0.0
2018-Jan-12 11:59N 39°35' W 075°36'0 0.0
2018-Jan-12 11:29N 39°35' W 075°36'0 0.0
2018-Jan-12 10:59N 39°35' W 075°36'0 0.0
2018-Jan-12 10:29N 39°35' W 075°36'0 0.0
2018-Jan-12 09:59N 39°35' W 075°36'0 0.0
2018-Jan-12 09:29N 39°35' W 075°36'0 0.0
2018-Jan-12 08:59N 39°35' W 075°36'0 0.0
2018-Jan-12 08:29N 39°35' W 075°36'0 0.0
2018-Jan-12 07:59N 39°35' W 075°36'0 0.0
2018-Jan-12 07:29N 39°35' W 075°36'0 0.0
2018-Jan-12 06:59N 39°35' W 075°36'0 0.0
2018-Jan-12 06:29N 39°35' W 075°36'0 0.0
2018-Jan-12 05:59N 39°35' W 075°36'0 0.0
2018-Jan-12 05:29N 39°35' W 075°36'0 0.0
2018-Jan-12 04:59N 39°35' W 075°36'0 0.0
2018-Jan-12 04:29N 39°35' W 075°36'0 0.0
2018-Jan-12 03:59N 39°35' W 075°36'0 0.0
2018-Jan-12 03:29N 39°35' W 075°36'0 0.0
2018-Jan-12 02:59N 39°35' W 075°36'0 0.0
2018-Jan-12 02:29N 39°35' W 075°36'0 0.0
2018-Jan-12 01:59N 39°35' W 075°36'0 0.0
2018-Jan-12 01:29N 39°35' W 075°36'0 0.0
2018-Jan-12 00:59N 39°35' W 075°36'0 0.0
2018-Jan-12 00:29N 39°35' W 075°36'0 0.0
2018-Jan-11 23:59N 39°35' W 075°36'0 0.0
2018-Jan-11 23:29N 39°35' W 075°36'0 0.0
2018-Jan-11 22:59N 39°35' W 075°36'0 0.0
2018-Jan-11 22:29N 39°35' W 075°36'0 0.0
2018-Jan-11 21:59N 39°35' W 075°36'0 0.0
2018-Jan-11 21:29N 39°35' W 075°36'0 0.0
2018-Jan-11 20:59N 39°35' W 075°36'0 0.0
2018-Jan-11 20:29N 39°35' W 075°36'0 0.0
2018-Jan-11 19:59N 39°35' W 075°36'0 0.0
2018-Jan-11 19:29N 39°35' W 075°36'0 0.0
2018-Jan-11 18:59N 39°35' W 075°36'0 0.0
2018-Jan-11 18:30N 39°35' W 075°36'0 0.5
2018-Jan-11 18:00N 39°35' W 075°35'4 7.0
2018-Jan-11 17:30N 39°32' W 075°33'4 7.7
2018-Jan-11 17:00N 39°28' W 075°34'4 7.9
2018-Jan-11 16:30N 39°25' W 075°31'4 8.2
2018-Jan-11 16:00N 39°22' W 075°27'4 8.4
2018-Jan-11 15:30N 39°19' W 075°24'4 8.4
2018-Jan-11 15:00N 39°16' W 075°20'4 8.7
2018-Jan-11 14:30N 39°12' W 075°17'4 8.7
2018-Jan-11 14:00N 39°09' W 075°14'4 9.0
2018-Jan-11 13:30N 39°05' W 075°11'5 9.2
2018-Jan-11 12:59N 39°00' W 075°09'4 9.1
2018-Jan-11 12:30N 38°57' W 075°06'16 6.4
2018-Jan-11 09:59N 38°55' W 074°45'5 9.8
2018-Jan-11 09:30N 38°59' W 074°41'510.0
2018-Jan-11 08:58N 39°02' W 074°36'910.4
2018-Jan-11 08:05N 39°09' W 074°28'210.5
2018-Jan-11 07:51N 39°10' W 074°25'410.4
2018-Jan-11 07:29N 39°13' W 074°22'610.3
2018-Jan-11 06:53N 39°17' W 074°16'610.4
2018-Jan-11 06:21N 39°22' W 074°12'410.4
2018-Jan-11 05:55N 39°26' W 074°10'410.3
2018-Jan-11 05:30N 39°30' W 074°07'510.3
2018-Jan-11 04:59N 39°35' W 074°04'510.4
2018-Jan-11 04:30N 39°39' W 074°02'510.3
2018-Jan-11 03:58N 39°45' W 073°59'510.2
2018-Jan-11 03:26N 39°50' W 073°58'510.4
2018-Jan-11 02:57N 39°55' W 073°57'610.3
2018-Jan-11 02:22N 40°01' W 073°56'510.3
2018-Jan-11 01:56N 40°05' W 073°55'1510.4
2018-Jan-11 00:31N 40°20' W 073°54'0 8.8
2018-Jan-11 00:30N 40°20' W 073°54'19 9.0
2018-Jan-10 22:22N 40°38' W 074°03'3 8.9
2018-Jan-10 22:00N 40°41' W 074°01'4 8.0
2018-Jan-10 21:30N 40°44' W 073°58'  

Dump ship's entire track history